Time;durP1;ratioP1;P1;durP2;ratioP2;P2;SDS_P1;SDS_P2;PMS_P1;PMS_P2;Temp;Humidity;BMP_temperature;BMP_pressure;BME280_temperature;BME280_humidity;BME280_pressure;Samples;Min_cycle;Max_cycle;Signal;HPM_P1;HPM_P2
2022/08/18 00:02:27;;;;;;;169.60;59.17;;;;;;;;;;4968378;28;20031;-85
2022/08/18 00:04:53;;;;;;;141.38;55.00;;;;;;;;;;4965829;28;20042;-86
2022/08/18 00:07:21;;;;;;;130.18;52.20;;;;;;;;;;4967426;28;20022;-84
2022/08/18 00:09:47;;;;;;;118.15;49.40;;;;;;;;;;4967435;28;20450;-85
2022/08/18 00:12:16;;;;;;;107.75;49.95;;;;;;;;;;4970552;28;20092;-86
2022/08/18 00:14:44;;;;;;;88.93;46.03;;;;;;;;;;5048943;28;20049;-84
2022/08/18 00:17:11;;;;;;;89.75;44.40;;;;;;;;;;5029035;28;20043;-85
2022/08/18 00:19:37;;;;;;;86.82;43.65;;;;;;;;;;4967757;28;20403;-85
2022/08/18 00:22:22;;;;;;;115.57;46.60;;;;;;;;;;4964593;28;20034;-84
2022/08/18 00:24:49;;;;;;;88.07;42.08;;;;;;;;;;4963138;28;20034;-86
2022/08/18 00:27:20;;;;;;;101.00;43.63;;;;;;;;;;4965860;28;20023;-84
2022/08/18 00:29:46;;;;;;;71.82;39.95;;;;;;;;;;4966972;28;20060;-86
2022/08/18 00:32:32;;;;;;;81.72;42.22;;;;;;;;;;5031817;28;20100;-85
2022/08/18 00:35:04;;;;;;;118.70;45.83;;;;;;;;;;5032339;28;20114;-85
2022/08/18 00:37:30;;;;;;;115.25;48.17;;;;;;;;;;5028617;28;20480;-85
2022/08/18 00:39:56;;;;;;;120.40;48.13;;;;;;;;;;4966033;28;20035;-86
2022/08/18 00:42:26;;;;;;;123.45;49.95;;;;;;;;;;4963918;28;20034;-86
2022/08/18 00:44:53;;;;;;;131.95;50.47;;;;;;;;;;5031819;28;20180;-85
2022/08/18 00:47:19;;;;;;;81.10;40.83;;;;;;;;;;4966558;28;20506;-85
2022/08/18 00:49:46;;;;;;;87.40;42.80;;;;;;;;;;5032788;28;20069;-86
2022/08/18 00:52:13;;;;;;;88.70;41.75;;;;;;;;;;4963157;28;20034;-86
2022/08/18 00:54:40;;;;;;;82.60;42.53;;;;;;;;;;4966291;28;20039;-86
2022/08/18 00:57:07;;;;;;;102.25;45.20;;;;;;;;;;4968132;28;20154;-87
2022/08/18 00:59:40;;;;;;;117.93;47.20;;;;;;;;;;4961830;28;20034;-86
2022/08/18 01:02:09;;;;;;;168.23;51.55;;;;;;;;;;4983025;28;20043;-85
2022/08/18 01:04:42;;;;;;;175.70;52.80;;;;;;;;;;4980338;28;20061;-85
2022/08/18 01:07:11;;;;;;;172.10;52.97;;;;;;;;;;4966871;28;20038;-85
2022/08/18 01:09:37;;;;;;;176.80;52.30;;;;;;;;;;4965329;28;20500;-85
2022/08/18 01:12:03;;;;;;;135.30;48.10;;;;;;;;;;4965961;28;20042;-86
2022/08/18 01:14:30;;;;;;;149.90;48.78;;;;;;;;;;4966915;28;20050;-85
2022/08/18 01:22:25;;;;;;;133.43;45.80;;;;;;;;;;4958691;28;20042;-85
2022/08/18 01:27:40;;;;;;;112.78;45.58;;;;;;;;;;4966082;28;20112;-85
2022/08/18 01:30:25;;;;;;;132.15;50.58;;;;;;;;;;5038045;28;20458;-86
2022/08/18 01:32:52;;;;;;;97.32;45.20;;;;;;;;;;4967257;28;20054;-85
2022/08/18 01:35:19;;;;;;;85.65;43.20;;;;;;;;;;4967936;28;20062;-85
2022/08/18 01:37:46;;;;;;;129.90;48.05;;;;;;;;;;5033929;28;20406;-85
2022/08/18 01:43:16;;;;;;;206.00;54.08;;;;;;;;;;4992344;22;20088;31
2022/08/18 01:46:17;;;;;;;112.55;43.97;;;;;;;;;;4982247;28;20078;-68
2022/08/18 01:48:43;;;;;;;181.18;51.35;;;;;;;;;;4939344;28;20035;-68
2022/08/18 01:51:11;;;;;;;111.18;42.53;;;;;;;;;;4952379;28;20485;-68
2022/08/18 01:53:37;;;;;;;72.78;38.28;;;;;;;;;;4931703;28;20062;-69
2022/08/18 01:56:04;;;;;;;129.98;46.35;;;;;;;;;;4947300;28;20036;-69
2022/08/18 01:58:30;;;;;;;170.60;51.55;;;;;;;;;;4951275;28;20099;-68
2022/08/18 02:00:57;;;;;;;166.65;51.25;;;;;;;;;;4950607;28;20074;-68
2022/08/18 02:03:25;;;;;;;186.93;53.65;;;;;;;;;;4956058;28;20039;-68
2022/08/18 02:05:54;;;;;;;222.23;54.80;;;;;;;;;;4949199;28;20039;-68
2022/08/18 02:08:20;;;;;;;225.05;54.47;;;;;;;;;;4950085;28;20099;-69
2022/08/18 02:10:47;;;;;;;147.43;50.90;;;;;;;;;;4949733;28;20035;-69
2022/08/18 02:13:13;;;;;;;160.10;51.38;;;;;;;;;;4950953;28;20066;-69
2022/08/18 02:15:39;;;;;;;126.35;46.58;;;;;;;;;;4950538;28;20073;-69
2022/08/18 02:18:05;;;;;;;211.35;57.22;;;;;;;;;;4950240;28;20473;-69
2022/08/18 02:20:31;;;;;;;124.57;47.45;;;;;;;;;;4963709;28;20027;-69
2022/08/18 02:22:57;;;;;;;168.77;50.08;;;;;;;;;;4949376;28;20053;-70
2022/08/18 02:25:24;;;;;;;107.68;45.42;;;;;;;;;;4949366;28;20082;-69
2022/08/18 02:27:50;;;;;;;102.05;44.72;;;;;;;;;;4939439;28;20019;-69
2022/08/18 02:30:17;;;;;;;105.00;46.42;;;;;;;;;;4952671;28;20046;-70
2022/08/18 02:32:43;;;;;;;124.40;45.70;;;;;;;;;;4949426;28;20020;-70
2022/08/18 02:35:10;;;;;;;94.45;44.05;;;;;;;;;;4948692;28;20425;-70
2022/08/18 02:37:37;;;;;;;214.98;55.53;;;;;;;;;;5016233;28;20039;-70
2022/08/18 02:40:03;;;;;;;200.50;53.13;;;;;;;;;;4980374;28;20039;-70
2022/08/18 02:42:29;;;;;;;185.80;54.10;;;;;;;;;;4950638;29;20504;-69
2022/08/18 02:44:55;;;;;;;186.40;51.75;;;;;;;;;;4947267;28;20447;-70
2022/08/18 02:47:22;;;;;;;178.85;53.72;;;;;;;;;;4949969;29;20032;-69
2022/08/18 02:49:48;;;;;;;218.30;53.88;;;;;;;;;;4956240;28;20027;-70
2022/08/18 02:52:16;;;;;;;200.27;51.10;;;;;;;;;;4953584;28;20085;-70
2022/08/18 02:54:42;;;;;;;177.93;48.92;;;;;;;;;;4950491;28;20043;-69
2022/08/18 02:57:09;;;;;;;180.10;48.97;;;;;;;;;;4948215;28;20468;-70
2022/08/18 02:59:37;;;;;;;188.98;49.50;;;;;;;;;;4949696;28;20484;-70
2022/08/18 03:02:04;;;;;;;210.27;51.63;;;;;;;;;;4949480;28;20506;-70
2022/08/18 03:04:30;;;;;;;232.35;56.00;;;;;;;;;;4948015;28;20039;-70
2022/08/18 03:06:57;;;;;;;220.68;55.35;;;;;;;;;;4949199;28;20031;-70
2022/08/18 03:09:23;;;;;;;229.52;58.78;;;;;;;;;;4947633;28;20023;-70
2022/08/18 03:11:50;;;;;;;283.98;59.85;;;;;;;;;;4949045;29;20034;-70
2022/08/18 03:14:16;;;;;;;249.23;61.65;;;;;;;;;;4947131;28;20046;-70
2022/08/18 03:16:44;;;;;;;328.05;65.68;;;;;;;;;;4948876;28;20401;-68
2022/08/18 03:19:10;;;;;;;358.40;69.38;;;;;;;;;;4943414;28;20038;-69
2022/08/18 03:21:37;;;;;;;273.50;62.92;;;;;;;;;;5009960;28;20050;-69
2022/08/18 03:24:04;;;;;;;311.88;67.68;;;;;;;;;;4946883;28;20063;-69
2022/08/18 03:26:31;;;;;;;271.92;71.72;;;;;;;;;;4943936;28;20042;-68
2022/08/18 03:28:58;;;;;;;391.25;84.35;;;;;;;;;;4948715;28;20054;-68
2022/08/18 03:31:25;;;;;;;407.77;86.15;;;;;;;;;;4946512;28;20362;-69
2022/08/18 03:33:52;;;;;;;400.15;91.57;;;;;;;;;;4950640;28;20105;-69
2022/08/18 03:36:20;;;;;;;465.17;98.35;;;;;;;;;;4944326;28;20491;-69
2022/08/18 03:38:47;;;;;;;562.95;108.20;;;;;;;;;;4946636;28;20146;-69
2022/08/18 03:41:15;;;;;;;491.58;103.68;;;;;;;;;;4947831;28;20114;-69
2022/08/18 03:43:41;;;;;;;509.85;106.60;;;;;;;;;;4943456;28;20035;-69
2022/08/18 03:46:08;;;;;;;445.35;100.47;;;;;;;;;;4945589;28;20500;-69
2022/08/18 03:48:35;;;;;;;529.53;102.80;;;;;;;;;;4945526;28;20031;-69
2022/08/18 03:51:06;;;;;;;480.92;103.47;;;;;;;;;;4928342;28;20607;-70
2022/08/18 03:53:32;;;;;;;476.85;99.65;;;;;;;;;;4944341;28;20046;-69
2022/08/18 03:55:59;;;;;;;537.33;101.45;;;;;;;;;;4944759;28;20054;-68
2022/08/18 03:58:25;;;;;;;549.92;104.90;;;;;;;;;;4945470;28;20134;-68
2022/08/18 04:00:51;;;;;;;489.98;99.75;;;;;;;;;;4945232;28;20047;-69
2022/08/18 04:03:17;;;;;;;422.85;94.45;;;;;;;;;;4944131;28;20039;-69
2022/08/18 04:05:43;;;;;;;469.33;95.32;;;;;;;;;;4942181;28;20058;-69
2022/08/18 04:08:09;;;;;;;510.58;98.15;;;;;;;;;;4946630;28;20028;-71
2022/08/18 04:10:35;;;;;;;450.00;92.60;;;;;;;;;;4945506;28;20062;-69
2022/08/18 04:13:04;;;;;;;499.50;93.95;;;;;;;;;;4945083;28;21061;-70
2022/08/18 04:15:30;;;;;;;421.60;89.13;;;;;;;;;;4947539;28;20052;-70
2022/08/18 04:18:03;;;;;;;408.27;87.68;;;;;;;;;;4946815;28;20201;-70
2022/08/18 04:20:31;;;;;;;430.27;84.75;;;;;;;;;;4944803;28;20180;-69
2022/08/18 04:22:57;;;;;;;352.40;83.53;;;;;;;;;;4944183;28;20110;-69
2022/08/18 04:25:23;;;;;;;304.85;79.80;;;;;;;;;;4943620;28;20146;-68
2022/08/18 04:27:49;;;;;;;373.08;82.57;;;;;;;;;;4941827;28;20043;-69
2022/08/18 04:30:15;;;;;;;387.77;84.90;;;;;;;;;;4948758;28;20035;-69
2022/08/18 04:32:42;;;;;;;490.48;88.07;;;;;;;;;;5009863;28;20073;-68
2022/08/18 04:35:08;;;;;;;426.10;83.38;;;;;;;;;;4943842;28;20058;-69
2022/08/18 04:37:36;;;;;;;455.30;85.50;;;;;;;;;;4943126;28;20031;-68
2022/08/18 04:40:03;;;;;;;406.42;84.95;;;;;;;;;;4943461;28;20027;-69
2022/08/18 04:42:29;;;;;;;444.33;85.15;;;;;;;;;;5010612;28;20062;-69
2022/08/18 04:44:56;;;;;;;422.70;81.90;;;;;;;;;;4943316;28;20059;-69
2022/08/18 04:47:22;;;;;;;451.85;77.45;;;;;;;;;;5009556;28;20039;-69
2022/08/18 04:49:49;;;;;;;365.02;81.13;;;;;;;;;;4945718;28;20122;-69
2022/08/18 04:55:01;;;;;;;513.08;89.20;;;;;;;;;;4943170;28;20054;-69
2022/08/18 04:57:27;;;;;;;373.98;76.55;;;;;;;;;;4945240;28;20054;-69
2022/08/18 04:59:54;;;;;;;448.77;81.07;;;;;;;;;;4943178;28;20129;-69
2022/08/18 05:02:20;;;;;;;373.77;78.20;;;;;;;;;;4941431;29;20037;-69
2022/08/18 05:04:46;;;;;;;433.52;86.60;;;;;;;;;;4942515;28;20129;-69
2022/08/18 05:07:13;;;;;;;327.27;75.88;;;;;;;;;;4948316;28;20133;-68
2022/08/18 05:09:40;;;;;;;431.77;79.32;;;;;;;;;;4943217;28;20468;-68
2022/08/18 05:12:07;;;;;;;339.27;78.25;;;;;;;;;;4942090;28;20032;-69
2022/08/18 05:14:34;;;;;;;304.52;70.53;;;;;;;;;;4942352;28;20046;-69
2022/08/18 05:17:01;;;;;;;373.52;74.57;;;;;;;;;;4947529;28;20492;-69
2022/08/18 05:19:27;;;;;;;343.25;73.82;;;;;;;;;;4957005;28;20042;-69
2022/08/18 05:21:56;;;;;;;325.20;68.35;;;;;;;;;;4957394;28;20481;-69
2022/08/18 05:24:26;;;;;;;317.75;64.70;;;;;;;;;;4948445;28;20101;-69
2022/08/18 05:26:52;;;;;;;319.25;63.20;;;;;;;;;;4961114;28;20077;-70
2022/08/18 05:29:22;;;;;;;356.60;69.15;;;;;;;;;;4950736;28;20058;-68
2022/08/18 05:31:49;;;;;;;275.75;62.38;;;;;;;;;;4949093;28;20023;-69
2022/08/18 05:34:16;;;;;;;298.70;65.07;;;;;;;;;;4951110;28;20043;-68
2022/08/18 05:36:43;;;;;;;292.17;65.35;;;;;;;;;;4951512;28;20047;-69
2022/08/18 05:39:10;;;;;;;272.65;64.18;;;;;;;;;;4950637;28;20438;-68
2022/08/18 05:41:37;;;;;;;274.80;64.18;;;;;;;;;;4958746;28;20039;-68
2022/08/18 05:44:04;;;;;;;167.90;56.05;;;;;;;;;;4950809;28;20035;-68
2022/08/18 05:46:53;;;;;;;223.57;60.17;;;;;;;;;;4950163;28;20161;-69
2022/08/18 05:49:20;;;;;;;406.88;75.00;;;;;;;;;;4951242;28;20500;-68
2022/08/18 05:51:48;;;;;;;330.42;65.10;;;;;;;;;;4949233;29;20481;-69
2022/08/18 05:57:05;;;;;;;161.38;49.15;;;;;;;;;;4941302;28;20092;-69
2022/08/18 05:59:33;;;;;;;127.45;45.55;;;;;;;;;;4949418;28;20059;-69
2022/08/18 06:02:11;;;;;;;69.15;36.28;;;;;;;;;;4950817;29;20126;-69
2022/08/18 06:04:50;;;;;;;94.55;38.72;;;;;;;;;;4951582;28;20085;-69
2022/08/18 06:07:25;;;;;;;72.32;32.05;;;;;;;;;;4956503;28;20037;-69
2022/08/18 06:09:53;;;;;;;69.72;32.45;;;;;;;;;;4949731;28;20035;-69
2022/08/18 06:12:33;;;;;;;75.13;35.75;;;;;;;;;;4949957;28;20089;-69
2022/08/18 06:15:06;;;;;;;43.50;27.52;;;;;;;;;;4950153;28;20100;-69
2022/08/18 06:17:37;;;;;;;39.97;26.30;;;;;;;;;;4952844;28;20023;-70
2022/08/18 06:20:14;;;;;;;48.70;30.05;;;;;;;;;;4949160;28;20445;-70
2022/08/18 06:23:03;;;;;;;36.97;26.30;;;;;;;;;;4968663;28;20399;-70
2022/08/18 06:25:29;;;;;;;37.50;24.27;;;;;;;;;;4948429;28;20050;-69
2022/08/18 06:28:01;;;;;;;32.38;21.70;;;;;;;;;;4963389;28;20024;-70
2022/08/18 06:30:34;;;;;;;28.77;19.00;;;;;;;;;;4948823;28;20106;-69
2022/08/18 06:33:09;;;;;;;27.33;19.00;;;;;;;;;;4949391;28;20115;-69
2022/08/18 06:35:38;;;;;;;25.20;16.73;;;;;;;;;;4949087;28;20039;-70
2022/08/18 06:41:09;;;;;;;24.42;15.63;;;;;;;;;;4948611;28;20125;-69
2022/08/18 06:43:36;;;;;;;22.42;13.75;;;;;;;;;;4960126;28;20104;-69
2022/08/18 06:46:07;;;;;;;17.83;12.85;;;;;;;;;;4945017;28;20779;-70
2022/08/18 06:48:46;;;;;;;14.82;12.15;;;;;;;;;;4947466;28;20027;-69
2022/08/18 06:51:14;;;;;;;18.50;12.45;;;;;;;;;;4948744;28;20043;-70
2022/08/18 06:53:52;;;;;;;16.58;12.07;;;;;;;;;;4951206;28;20035;-70
2022/08/18 06:56:24;;;;;;;15.25;11.27;;;;;;;;;;4949015;28;20041;-70
2022/08/18 06:58:53;;;;;;;15.52;10.55;;;;;;;;;;4952089;28;20023;-70
2022/08/18 07:01:19;;;;;;;14.25;9.80;;;;;;;;;;4953380;28;20039;-70
2022/08/18 07:03:50;;;;;;;16.45;10.45;;;;;;;;;;4950276;28;20114;-70
2022/08/18 07:06:22;;;;;;;15.57;11.02;;;;;;;;;;4948797;28;20037;-70
2022/08/18 07:09:08;;;;;;;14.60;11.20;;;;;;;;;;4948720;28;20035;-69
2022/08/18 07:11:38;;;;;;;16.90;11.23;;;;;;;;;;4952934;28;20085;-69
2022/08/18 07:14:04;;;;;;;;;;;;;;;;;;4950970;28;20046;-69
2022/08/18 07:16:32;;;;;;;11.38;8.95;;;;;;;;;;4946307;28;20170;-69
2022/08/18 07:19:08;;;;;;;14.60;8.68;;;;;;;;;;4945700;28;20042;-70
2022/08/18 07:21:36;;;;;;;11.70;8.25;;;;;;;;;;4945450;28;20035;-70
2022/08/18 07:24:09;;;;;;;14.98;9.52;;;;;;;;;;4946054;28;20132;-70
2022/08/18 07:26:54;;;;;;;13.23;9.57;;;;;;;;;;4942877;28;20035;-70
2022/08/18 07:29:20;;;;;;;15.77;9.73;;;;;;;;;;4945190;28;20039;-70
2022/08/18 07:31:48;;;;;;;12.57;7.68;;;;;;;;;;4946699;28;20080;-70
2022/08/18 07:34:17;;;;;;;12.43;8.30;;;;;;;;;;4944915;28;20069;-70
2022/08/18 07:36:53;;;;;;;10.77;8.13;;;;;;;;;;4943790;28;20081;-70
2022/08/18 07:39:27;;;;;;;11.60;8.43;;;;;;;;;;4937790;28;20476;-70
2022/08/18 07:42:09;;;;;;;12.57;8.25;;;;;;;;;;4942942;28;20039;-70
2022/08/18 07:45:07;;;;;;;12.25;8.40;;;;;;;;;;4946000;29;20039;-69
2022/08/18 07:47:38;;;;;;;11.70;8.55;;;;;;;;;;4967971;28;20045;-70
2022/08/18 07:50:05;;;;;;;9.88;6.88;;;;;;;;;;4944556;28;20106;-70
2022/08/18 07:52:36;;;;;;;10.20;7.80;;;;;;;;;;4942776;28;20019;-70
2022/08/18 07:55:08;;;;;;;15.05;8.57;;;;;;;;;;4943680;28;20452;-69
2022/08/18 07:57:34;;;;;;;12.88;8.02;;;;;;;;;;4945782;28;20118;-70
2022/08/18 08:00:11;;;;;;;11.52;8.85;;;;;;;;;;4974267;28;20130;-70
2022/08/18 08:03:00;;;;;;;11.18;8.85;;;;;;;;;;4946188;28;20039;-69
2022/08/18 08:05:29;;;;;;;10.40;9.30;;;;;;;;;;4945999;28;20043;-71
2022/08/18 08:07:57;;;;;;;11.70;9.38;;;;;;;;;;4943857;28;20488;-72
2022/08/18 08:10:26;;;;;;;11.15;8.35;;;;;;;;;;4943088;28;20035;-72
2022/08/18 08:13:02;;;;;;;10.15;7.85;;;;;;;;;;4946502;28;20042;-72
2022/08/18 08:15:36;;;;;;;10.95;7.22;;;;;;;;;;4945011;29;20027;-72
2022/08/18 08:18:08;;;;;;;9.07;5.97;;;;;;;;;;4941423;29;20049;-72
2022/08/18 08:20:34;;;;;;;6.53;5.20;;;;;;;;;;4941936;28;20035;-73
2022/08/18 08:23:16;;;;;;;7.72;4.90;;;;;;;;;;4944444;28;20045;-72
2022/08/18 08:25:51;;;;;;;8.90;5.30;;;;;;;;;;4943096;28;20035;-72
2022/08/18 08:28:38;;;;;;;9.88;5.40;;;;;;;;;;4943427;28;20031;-72
2022/08/18 08:31:04;;;;;;;4.95;4.35;;;;;;;;;;4944180;28;20488;-72
2022/08/18 08:33:37;;;;;;;6.95;3.92;;;;;;;;;;4943871;28;20054;-71
2022/08/18 08:36:07;;;;;;;5.55;3.75;;;;;;;;;;4952673;28;20133;-71
2022/08/18 08:38:54;;;;;;;6.22;4.13;;;;;;;;;;4942897;28;20039;-73
2022/08/18 08:41:25;;;;;;;5.30;3.60;;;;;;;;;;4941940;28;20035;-74
2022/08/18 08:43:56;;;;;;;7.35;3.72;;;;;;;;;;4942230;28;20096;-74
2022/08/18 08:46:25;;;;;;;5.03;3.50;;;;;;;;;;4943624;28;20047;-71
2022/08/18 08:48:56;;;;;;;6.72;3.38;;;;;;;;;;4959646;28;20027;-71
2022/08/18 08:51:28;;;;;;;6.40;3.20;;;;;;;;;;4939989;28;20148;-71
2022/08/18 08:53:57;;;;;;;6.18;3.92;;;;;;;;;;4943284;28;20035;-71
2022/08/18 08:56:27;;;;;;;6.53;3.97;;;;;;;;;;4945917;28;20051;-71
2022/08/18 08:59:13;;;;;;;5.47;3.95;;;;;;;;;;4944914;28;20198;-71
2022/08/18 09:02:07;;;;;;;7.78;3.92;;;;;;;;;;4942701;28;20118;-71
2022/08/18 09:04:39;;;;;;;8.38;4.50;;;;;;;;;;4944504;28;20050;-70
2022/08/18 09:07:28;;;;;;;6.97;3.80;;;;;;;;;;4946691;28;20092;-71
2022/08/18 09:10:15;;;;;;;9.32;4.10;;;;;;;;;;4947881;28;20063;-70
2022/08/18 09:13:19;;;;;;;5.55;3.80;;;;;;;;;;4931832;28;20048;-70
2022/08/18 09:16:04;;;;;;;7.95;3.92;;;;;;;;;;4967770;28;20034;-70
2022/08/18 09:18:33;;;;;;;5.95;4.00;;;;;;;;;;4962624;28;20119;-69
2022/08/18 09:21:04;;;;;;;7.30;4.25;;;;;;;;;;4950122;28;20036;-70
2022/08/18 09:23:29;;;;;;;;;;;;;;;;;;4948099;29;20081;-70
2022/08/18 09:25:59;;;;;;;7.70;4.20;;;;;;;;;;4948236;28;20260;-69
2022/08/18 09:28:27;;;;;;;6.65;3.53;;;;;;;;;;4949697;28;20035;-70
2022/08/18 09:30:54;;;;;;;5.72;3.83;;;;;;;;;;4943291;28;20390;-69
2022/08/18 09:33:20;;;;;;;6.47;3.70;;;;;;;;;;4945172;28;20031;-69
2022/08/18 09:35:46;;;;;;;6.45;3.70;;;;;;;;;;4946279;28;20058;-70
2022/08/18 09:44:08;;;;;;;5.03;3.50;;;;;;;;;;4947672;29;20054;-70
2022/08/18 09:46:55;;;;;;;4.95;3.17;;;;;;;;;;4945996;28;20516;-70
2022/08/18 09:49:24;;;;;;;4.82;3.17;;;;;;;;;;4946121;28;20110;-70
2022/08/18 09:51:54;;;;;;;9.20;3.30;;;;;;;;;;4941688;28;20027;-70
2022/08/18 09:54:31;;;;;;;5.68;3.40;;;;;;;;;;4947215;28;20071;-70
2022/08/18 09:57:16;;;;;;;8.05;3.58;;;;;;;;;;4949126;28;20042;-70
2022/08/18 09:59:52;;;;;;;4.07;3.50;;;;;;;;;;4946416;28;20480;-70
2022/08/18 10:02:36;;;;;;;5.78;3.67;;;;;;;;;;4946018;28;20035;-70
2022/08/18 10:05:14;;;;;;;8.68;3.88;;;;;;;;;;4946387;28;20460;-71
2022/08/18 10:07:52;;;;;;;6.40;3.47;;;;;;;;;;4946125;28;20408;-70
2022/08/18 10:10:18;;;;;;;7.53;4.53;;;;;;;;;;4946584;28;20039;-71
2022/08/18 10:13:02;;;;;;;5.85;4.18;;;;;;;;;;4946402;28;20400;-71
2022/08/18 10:15:31;;;;;;;6.72;3.50;;;;;;;;;;4947186;28;20039;-71
2022/08/18 10:18:00;;;;;;;5.85;3.97;;;;;;;;;;4945327;28;20082;-71
2022/08/18 10:20:38;;;;;;;7.30;3.25;;;;;;;;;;4945269;28;20470;-71
2022/08/18 10:23:06;;;;;;;7.28;3.50;;;;;;;;;;4947094;28;20051;-71
2022/08/18 10:25:40;;;;;;;4.82;3.40;;;;;;;;;;4949009;28;20559;-71
2022/08/18 10:28:10;;;;;;;6.03;2.97;;;;;;;;;;4943714;28;20039;-70
2022/08/18 10:30:36;;;;;;;4.93;2.90;;;;;;;;;;4945674;28;20051;-71
2022/08/18 10:33:04;;;;;;;4.38;2.72;;;;;;;;;;4948687;28;20380;-70
2022/08/18 10:35:37;;;;;;;8.45;3.38;;;;;;;;;;4946413;28;20031;-70
2022/08/18 10:38:13;;;;;;;6.47;3.28;;;;;;;;;;4947074;28;20032;-70
2022/08/18 10:40:42;;;;;;;8.00;3.28;;;;;;;;;;4942068;28;20062;-70
2022/08/18 10:43:19;;;;;;;5.50;3.22;;;;;;;;;;4947560;29;20463;-70
2022/08/18 10:45:51;;;;;;;4.85;3.00;;;;;;;;;;4944881;28;20393;-69
2022/08/18 10:48:20;;;;;;;5.22;3.38;;;;;;;;;;4947484;28;20657;-70
2022/08/18 10:50:52;;;;;;;4.50;2.90;;;;;;;;;;4944951;28;20078;-70
2022/08/18 10:53:30;;;;;;;4.60;2.53;;;;;;;;;;4946850;28;20039;-70
2022/08/18 10:56:19;;;;;;;5.55;2.65;;;;;;;;;;4946297;28;20565;-70
2022/08/18 10:58:45;;;;;;;10.00;3.20;;;;;;;;;;4964372;28;20575;-70
2022/08/18 11:01:30;;;;;;;7.05;2.72;;;;;;;;;;4944370;28;20114;-70
2022/08/18 11:04:25;;;;;;;3.65;2.60;;;;;;;;;;4947620;28;20409;-70
2022/08/18 11:06:53;;;;;;;3.00;2.20;;;;;;;;;;4945881;28;20359;-70
2022/08/18 11:09:28;;;;;;;3.38;2.25;;;;;;;;;;4945580;28;20034;-70
2022/08/18 11:11:55;;;;;;;4.40;2.42;;;;;;;;;;4944621;28;20062;-70
2022/08/18 11:14:24;;;;;;;6.53;2.20;;;;;;;;;;4984988;28;20023;-71
2022/08/18 11:17:21;;;;;;;4.70;2.13;;;;;;;;;;4945400;28;20031;-70
2022/08/18 11:19:47;;;;;;;4.40;2.40;;;;;;;;;;4957311;28;20035;-70
2022/08/18 11:22:30;;;;;;;3.55;2.20;;;;;;;;;;5014864;28;20035;-70
2022/08/18 11:24:57;;;;;;;3.38;2.28;;;;;;;;;;4950054;28;20039;-70
2022/08/18 11:27:27;;;;;;;3.97;2.55;;;;;;;;;;4949957;28;20027;-74
2022/08/18 11:29:54;;;;;;;5.95;2.47;;;;;;;;;;4947249;28;20038;-71
2022/08/18 11:32:33;;;;;;;5.80;2.80;;;;;;;;;;4949377;28;20019;-71
2022/08/18 11:35:18;;;;;;;6.53;2.80;;;;;;;;;;4950379;28;20030;-72
2022/08/18 11:37:49;;;;;;;5.13;2.80;;;;;;;;;;4959987;28;20297;-71
2022/08/18 11:40:17;;;;;;;6.28;3.05;;;;;;;;;;4952746;28;20579;-71
2022/08/18 11:42:53;;;;;;;5.65;2.78;;;;;;;;;;4946167;28;20044;-71
2022/08/18 11:45:21;;;;;;;7.53;2.72;;;;;;;;;;4947296;28;20066;-71
2022/08/18 11:47:59;;;;;;;4.60;2.90;;;;;;;;;;4952919;28;20053;-70
2022/08/18 11:50:27;;;;;;;5.80;2.83;;;;;;;;;;4948535;28;20063;-71
2022/08/18 11:52:55;;;;;;;5.75;2.92;;;;;;;;;;4949874;28;20135;-70
2022/08/18 11:55:34;;;;;;;6.43;2.85;;;;;;;;;;4954386;28;20031;-71
2022/08/18 11:58:03;;;;;;;6.07;2.60;;;;;;;;;;4948312;28;20078;-71
2022/08/18 12:00:44;;;;;;;4.32;2.75;;;;;;;;;;4948967;28;20047;-71
2022/08/18 12:03:19;;;;;;;6.43;2.60;;;;;;;;;;4948142;28;20062;-71
2022/08/18 12:05:57;;;;;;;5.97;2.58;;;;;;;;;;4947458;28;20032;-72
2022/08/18 12:08:27;;;;;;;4.55;2.20;;;;;;;;;;4946683;28;20035;-71
2022/08/18 12:11:17;;;;;;;4.18;2.38;;;;;;;;;;4948024;28;20020;-72
2022/08/18 12:13:45;;;;;;;3.15;2.10;;;;;;;;;;4945867;28;20116;-71
2022/08/18 12:16:13;;;;;;;4.72;2.03;;;;;;;;;;4947419;28;20024;-71
2022/08/18 12:18:39;;;;;;;4.63;2.20;;;;;;;;;;4949010;28;20042;-71
2022/08/18 12:21:05;;;;;;;2.92;1.95;;;;;;;;;;4947266;28;20446;-71
2022/08/18 12:23:32;;;;;;;3.20;2.00;;;;;;;;;;4948404;28;20045;-72
2022/08/18 12:25:58;;;;;;;3.90;1.63;;;;;;;;;;4948071;28;20066;-71
2022/08/18 12:28:26;;;;;;;4.00;2.10;;;;;;;;;;4949463;28;20107;-70
2022/08/18 12:30:52;;;;;;;3.30;2.03;;;;;;;;;;4950822;28;20031;-72
2022/08/18 12:33:18;;;;;;;3.65;1.50;;;;;;;;;;4948553;28;20036;-71
2022/08/18 12:35:44;;;;;;;3.17;1.83;;;;;;;;;;4944891;28;20447;-72
2022/08/18 12:38:12;;;;;;;4.10;2.20;;;;;;;;;;4947340;28;20359;-72
2022/08/18 12:40:39;;;;;;;3.70;2.10;;;;;;;;;;4947327;28;20035;-72
2022/08/18 12:43:05;;;;;;;2.85;2.00;;;;;;;;;;4948518;28;20035;-70
2022/08/18 12:45:31;;;;;;;3.53;1.92;;;;;;;;;;4947134;28;20094;-69
2022/08/18 12:48:01;;;;;;;3.67;2.00;;;;;;;;;;4945717;28;20027;-72
2022/08/18 12:50:27;;;;;;;3.53;2.13;;;;;;;;;;4946636;28;20066;-70
2022/08/18 12:52:53;;;;;;;4.65;2.00;;;;;;;;;;5014610;28;20039;-69
2022/08/18 12:55:19;;;;;;;4.38;2.10;;;;;;;;;;4948964;28;20385;-70
2022/08/18 12:57:45;;;;;;;3.15;1.80;;;;;;;;;;4948978;28;20043;-70
2022/08/18 13:00:11;;;;;;;5.25;2.20;;;;;;;;;;4962739;28;20035;-71
2022/08/18 13:02:37;;;;;;;5.25;2.08;;;;;;;;;;4953388;28;20036;-71
2022/08/18 13:05:03;;;;;;;3.83;1.95;;;;;;;;;;4946793;28;20051;-72
2022/08/18 13:07:30;;;;;;;4.60;2.00;;;;;;;;;;4948130;28;20033;-70
2022/08/18 13:09:56;;;;;;;4.00;2.13;;;;;;;;;;4930944;28;20097;-70
2022/08/18 13:12:24;;;;;;;3.92;2.20;;;;;;;;;;4948664;28;20038;-71
2022/08/18 13:14:53;;;;;;;4.93;1.98;;;;;;;;;;4946478;28;20065;-70
2022/08/18 13:17:19;;;;;;;5.30;1.90;;;;;;;;;;4943790;28;20020;-70
2022/08/18 13:19:46;;;;;;;5.15;2.00;;;;;;;;;;4946416;28;20068;-70
2022/08/18 13:22:12;;;;;;;2.67;1.67;;;;;;;;;;4947566;28;20051;-70
2022/08/18 13:24:38;;;;;;;3.58;1.80;;;;;;;;;;4947956;28;20032;-71
2022/08/18 13:27:04;;;;;;;3.90;1.90;;;;;;;;;;4946528;28;20081;-71
2022/08/18 13:29:30;;;;;;;2.70;1.90;;;;;;;;;;4945819;28;20452;-70
2022/08/18 13:31:57;;;;;;;3.90;2.22;;;;;;;;;;4950387;28;20053;-71
2022/08/18 13:34:26;;;;;;;4.97;2.13;;;;;;;;;;4944643;28;20077;-70
2022/08/18 13:36:53;;;;;;;2.75;1.80;;;;;;;;;;4944813;28;20493;-70
2022/08/18 13:39:20;;;;;;;3.85;1.90;;;;;;;;;;4947400;28;20035;-70
2022/08/18 13:41:47;;;;;;;6.20;2.28;;;;;;;;;;4946943;28;20032;-70
2022/08/18 13:44:16;;;;;;;3.58;1.95;;;;;;;;;;4941289;28;20040;-71
2022/08/18 13:46:45;;;;;;;4.95;1.90;;;;;;;;;;4944334;28;20498;-70
2022/08/18 13:49:15;;;;;;;3.33;1.85;;;;;;;;;;4943953;28;20174;-71
2022/08/18 13:51:42;;;;;;;4.32;1.75;;;;;;;;;;4961761;28;20460;-71
2022/08/18 13:54:08;;;;;;;4.75;2.10;;;;;;;;;;4950607;28;20035;-72
2022/08/18 13:56:34;;;;;;;3.40;2.00;;;;;;;;;;4949140;28;20047;-71
2022/08/18 13:59:00;;;;;;;3.83;2.20;;;;;;;;;;4951133;28;20153;-71
2022/08/18 14:01:27;;;;;;;3.50;1.83;;;;;;;;;;4947988;28;20035;-71
2022/08/18 14:03:53;;;;;;;5.07;1.92;;;;;;;;;;4946082;28;20047;-71
2022/08/18 14:06:20;;;;;;;4.60;1.70;;;;;;;;;;4950403;28;20081;-72
2022/08/18 14:08:47;;;;;;;3.50;1.92;;;;;;;;;;4949953;28;20070;-71
2022/08/18 14:11:13;;;;;;;6.72;2.28;;;;;;;;;;4950732;28;20046;-72
2022/08/18 14:13:40;;;;;;;6.18;2.15;;;;;;;;;;4948673;28;20035;-71
2022/08/18 14:16:07;;;;;;;3.47;1.98;;;;;;;;;;4950219;28;20069;-71
2022/08/18 14:18:33;;;;;;;2.63;1.80;;;;;;;;;;4950017;28;20070;-72
2022/08/18 14:26:47;;;;;;;8.25;2.20;;;;;;;;;;4948764;28;20044;-71
2022/08/18 14:29:13;;;;;;;5.90;2.17;;;;;;;;;;5004240;28;20141;-70
2022/08/18 14:31:40;;;;;;;6.78;2.30;;;;;;;;;;4950732;28;20098;-70
2022/08/18 14:34:06;;;;;;;5.45;2.25;;;;;;;;;;4949674;28;20475;-70
2022/08/18 14:36:32;;;;;;;6.25;2.28;;;;;;;;;;4949804;28;20039;-70
2022/08/18 14:39:04;;;;;;;5.38;2.47;;;;;;;;;;4950126;28;20089;-70
2022/08/18 14:41:31;;;;;;;5.80;2.20;;;;;;;;;;4950092;28;20090;-71
2022/08/18 14:43:57;;;;;;;3.83;2.00;;;;;;;;;;4949677;28;20042;-70
2022/08/18 14:46:27;;;;;;;3.53;2.30;;;;;;;;;;5011040;28;20061;-72
2022/08/18 14:48:53;;;;;;;5.32;2.03;;;;;;;;;;5028466;28;20113;-72
2022/08/18 14:51:19;;;;;;;3.75;2.17;;;;;;;;;;5030666;28;20160;-71
2022/08/18 14:53:45;;;;;;;3.90;1.98;;;;;;;;;;5032591;28;20026;-71
2022/08/18 14:56:11;;;;;;;6.45;2.20;;;;;;;;;;5029065;28;20098;-71
2022/08/18 14:58:39;;;;;;;5.00;2.20;;;;;;;;;;5030433;28;20037;-71
2022/08/18 15:01:06;;;;;;;3.17;2.33;;;;;;;;;;5029247;28;20022;-70
2022/08/18 15:03:33;;;;;;;7.35;2.38;;;;;;;;;;5026956;28;20029;-71
2022/08/18 15:06:00;;;;;;;4.75;2.40;;;;;;;;;;5030916;28;20072;-72
2022/08/18 15:08:27;;;;;;;3.30;2.10;;;;;;;;;;5029026;28;20044;-71
2022/08/18 15:10:53;;;;;;;3.25;2.20;;;;;;;;;;5031371;28;20025;-72
2022/08/18 15:13:19;;;;;;;3.70;2.05;;;;;;;;;;5029512;28;20549;-71
2022/08/18 15:15:45;;;;;;;6.60;2.45;;;;;;;;;;5028710;28;20088;-72